Time;durP1;ratioP1;P1;durP2;ratioP2;P2;SDS_P1;SDS_P2;PMS_P1;PMS_P2;Temp;Humidity;BMP_temperature;BMP_pressure;BME280_temperature;BME280_humidity;BME280_pressure;Samples;Min_cycle;Max_cycle;Signal;HPM_P1;HPM_P2
2021/11/03 00:01:26;;;;;;;5.00;4.10;;;;;;;5.59;100.00;95171.13;5000177;28;20683;-51
2021/11/03 00:03:55;;;;;;;5.50;3.65;;;;;;;5.88;100.00;95169.19;5004756;28;20070;-53
2021/11/03 00:06:24;;;;;;;3.97;3.67;;;;;;;5.86;100.00;95165.88;5001252;28;20085;-54
2021/11/03 00:08:53;;;;;;;4.07;3.60;;;;;;;5.90;100.00;95167.22;4991334;28;20058;-51
2021/11/03 00:11:21;;;;;;;3.90;3.60;;;;;;;6.05;100.00;95167.56;5002775;28;20070;-55
2021/11/03 00:13:51;;;;;;;4.20;3.80;;;;;;;6.18;100.00;95159.34;5005142;28;20481;-53
2021/11/03 00:16:20;;;;;;;4.13;3.72;;;;;;;5.87;100.00;95156.22;5005689;28;20527;-53
2021/11/03 00:18:48;;;;;;;5.45;3.90;;;;;;;6.15;100.00;95149.97;5013621;28;20085;-56
2021/11/03 00:21:17;;;;;;;5.85;3.97;;;;;;;6.08;100.00;95156.78;4999602;28;20085;-53
2021/11/03 00:23:51;;;;;;;4.00;3.67;;;;;;;6.08;100.00;95146.31;4992335;28;20073;-54
2021/11/03 00:26:20;;;;;;;4.43;4.03;;;;;;;6.02;100.00;95149.56;5009587;28;20073;-58
2021/11/03 00:28:48;;;;;;;5.45;3.80;;;;;;;6.18;100.00;95148.88;5005574;28;20073;-57
2021/11/03 00:31:18;;;;;;;4.20;3.80;;;;;;;6.16;100.00;95149.03;4998584;28;20069;-57
2021/11/03 00:33:47;;;;;;;5.68;4.00;;;;;;;6.06;100.00;95147.47;5009484;28;20084;-52
2021/11/03 00:36:15;;;;;;;4.65;3.90;;;;;;;5.89;100.00;95138.59;5005937;28;20077;-57
2021/11/03 00:38:44;;;;;;;4.20;3.80;;;;;;;5.38;100.00;95140.00;5006264;28;20081;-52
2021/11/03 00:41:12;;;;;;;4.00;3.70;;;;;;;5.45;100.00;95133.22;4995109;28;20092;-54
2021/11/03 00:43:41;;;;;;;3.90;3.60;;;;;;;5.76;100.00;95122.44;5000730;28;20069;-56
2021/11/03 00:46:09;;;;;;;4.30;3.90;;;;;;;5.82;100.00;95122.66;5005962;28;20065;-52
2021/11/03 00:48:40;;;;;;;5.82;3.90;;;;;;;5.56;100.00;95117.31;5005677;28;20535;-56
2021/11/03 00:51:09;;;;;;;3.88;3.58;;;;;;;5.40;100.00;95109.28;5011686;28;20089;-52
2021/11/03 00:53:38;;;;;;;3.70;3.50;;;;;;;5.09;100.00;95106.97;5000414;28;20042;-54
2021/11/03 00:56:07;;;;;;;4.32;3.70;;;;;;;4.97;100.00;95097.69;5004280;28;20553;-57
2021/11/03 00:58:36;;;;;;;3.80;3.50;;;;;;;4.88;100.00;95098.53;4999454;28;20084;-53
2021/11/03 01:01:04;;;;;;;3.92;3.50;;;;;;;4.89;100.00;95087.13;5003033;28;20061;-55
2021/11/03 01:03:33;;;;;;;3.80;3.50;;;;;;;5.38;100.00;95088.53;5002116;28;20096;-54
2021/11/03 01:06:03;;;;;;;3.67;3.42;;;;;;;5.44;100.00;95085.34;4997565;28;20235;-55
2021/11/03 01:08:32;;;;;;;3.65;3.42;;;;;;;5.47;100.00;95074.59;4990421;28;20370;-52
2021/11/03 01:11:02;;;;;;;4.43;3.97;;;;;;;5.41;100.00;95074.38;5001020;28;20064;-53
2021/11/03 01:13:30;;;;;;;3.72;3.42;;;;;;;5.43;100.00;95073.22;5011961;28;20111;-52
2021/11/03 01:15:59;;;;;;;4.35;3.88;;;;;;;5.00;100.00;95074.69;5002813;28;20070;-56
2021/11/03 01:18:29;;;;;;;3.72;3.42;;;;;;;5.11;100.00;95075.47;4995363;28;20573;-56
2021/11/03 01:20:58;;;;;;;4.15;3.40;;;;;;;5.22;100.00;95077.91;5004899;28;20069;-54
2021/11/03 01:23:29;;;;;;;3.90;3.60;;;;;;;5.28;100.00;95071.28;5008647;28;20065;-55
2021/11/03 01:25:58;;;;;;;3.83;3.53;;;;;;;5.10;100.00;95084.28;5001589;28;20065;-56
2021/11/03 01:28:26;;;;;;;4.50;4.07;;;;;;;5.04;100.00;95090.91;5006754;28;20068;-53
2021/11/03 01:30:55;;;;;;;4.38;4.07;;;;;;;5.06;100.00;95090.75;4996873;28;20077;-55
2021/11/03 01:33:24;;;;;;;4.43;4.00;;;;;;;5.06;100.00;95090.75;5008332;28;20708;-54
2021/11/03 01:35:52;;;;;;;4.05;3.70;;;;;;;5.04;100.00;95096.13;5007923;28;20074;-57
2021/11/03 01:38:21;;;;;;;4.30;4.00;;;;;;;5.08;100.00;95097.50;5009234;28;20068;-53
2021/11/03 01:40:52;;;;;;;4.10;3.80;;;;;;;5.17;100.00;95087.97;5005142;28;20068;-56
2021/11/03 01:43:36;;;;;;;4.47;4.07;;;;;;;5.02;100.00;95090.22;4994654;28;20069;-55
2021/11/03 01:46:25;;;;;;;5.85;3.88;;;;;;;5.08;100.00;95086.22;5004131;28;20084;-58
2021/11/03 01:48:58;;;;;;;4.63;3.83;;;;;;;5.05;100.00;95082.09;5004198;28;20473;-58
2021/11/03 01:51:33;;;;;;;4.18;3.70;;;;;;;4.95;100.00;95082.13;5005156;28;20080;-52
2021/11/03 01:54:04;;;;;;;4.38;4.00;;;;;;;4.93;100.00;95080.66;5006522;28;21262;-54
2021/11/03 01:56:34;;;;;;;4.68;4.20;;;;;;;4.95;100.00;95071.69;5003341;28;20074;-56
2021/11/03 01:59:06;;;;;;;4.80;4.40;;;;;;;4.95;100.00;95070.88;4989405;28;20069;-54
2021/11/03 02:01:35;;;;;;;5.10;4.10;;;;;;;4.95;100.00;95071.69;5007472;28;20489;-53
2021/11/03 02:04:05;;;;;;;5.28;4.40;;;;;;;4.70;100.00;95057.50;5001320;28;20049;-57
2021/11/03 02:06:34;;;;;;;4.90;4.50;;;;;;;4.61;100.00;95066.22;5007985;28;20112;-52
2021/11/03 02:09:04;;;;;;;4.80;4.40;;;;;;;4.45;100.00;95058.16;5003069;28;21243;-57
2021/11/03 02:11:34;;;;;;;4.50;4.15;;;;;;;4.43;100.00;95054.84;4992979;28;20062;-55
2021/11/03 02:14:06;;;;;;;4.88;4.18;;;;;;;4.47;100.00;95056.19;5006901;28;20456;-51
2021/11/03 02:16:35;;;;;;;4.63;4.22;;;;;;;4.42;100.00;95053.22;5000492;28;20066;-54
2021/11/03 02:19:06;;;;;;;4.70;4.30;;;;;;;4.43;100.00;95042.63;4993141;28;20061;-56
2021/11/03 02:21:39;;;;;;;5.43;4.15;;;;;;;4.43;100.00;95039.19;5006563;28;20089;-55
2021/11/03 02:24:15;;;;;;;4.60;4.20;;;;;;;4.13;100.00;95027.16;4990384;28;21290;-54
2021/11/03 02:26:46;;;;;;;4.55;4.15;;;;;;;3.85;100.00;95021.03;4990328;28;20046;-54
2021/11/03 02:29:18;;;;;;;4.47;4.13;;;;;;;4.09;100.00;95024.03;4979568;28;20067;-55
2021/11/03 02:31:50;;;;;;;5.30;4.80;;;;;;;4.23;100.00;95021.00;4997262;28;20038;-56
2021/11/03 02:34:21;;;;;;;5.20;4.70;;;;;;;4.29;100.00;95015.19;5001821;28;20058;-53
2021/11/03 02:36:51;;;;;;;;;;;;;;;4.31;100.00;95007.22;4989235;28;20073;-56
2021/11/03 02:39:22;;;;;;;6.18;4.07;;;;;;;4.45;100.00;95012.00;4986050;28;19958;-54
2021/11/03 02:41:54;;;;;;;4.97;4.57;;;;;;;4.48;100.00;95009.09;4995679;28;20091;-56
2021/11/03 02:44:25;;;;;;;4.53;4.20;;;;;;;4.10;100.00;95014.44;4996715;28;20081;-54
2021/11/03 02:46:53;;;;;;;8.20;5.32;;;;;;;4.37;100.00;95011.88;4990882;28;20108;-53
2021/11/03 02:49:22;;;;;;;5.00;4.50;;;;;;;4.40;100.00;95011.56;5005009;28;20478;-57
2021/11/03 02:51:50;;;;;;;4.72;4.32;;;;;;;4.35;100.00;94997.31;5006344;28;20390;-58
2021/11/03 02:54:22;;;;;;;5.00;4.60;;;;;;;4.46;100.00;94997.97;5007984;28;20731;-53
2021/11/03 02:56:54;;;;;;;4.88;4.47;;;;;;;4.09;100.00;94995.31;5000847;28;20132;-56
2021/11/03 02:59:27;;;;;;;5.18;4.72;;;;;;;4.29;100.00;94983.06;4998596;28;20065;-53
2021/11/03 03:01:57;;;;;;;5.13;4.72;;;;;;;4.25;100.00;94979.91;4986806;28;20155;-55
2021/11/03 03:04:27;;;;;;;5.10;4.70;;;;;;;4.22;100.00;94971.53;4987498;28;20068;-50
2021/11/03 03:06:56;;;;;;;5.22;4.72;;;;;;;4.05;100.00;94968.69;5000784;28;20528;-53
2021/11/03 03:09:24;;;;;;;5.57;4.80;;;;;;;4.36;100.00;94960.63;4998478;28;20078;-51
2021/11/03 03:11:59;;;;;;;7.18;4.70;;;;;;;4.41;100.00;94966.28;4996943;28;20076;-56
2021/11/03 03:14:32;;;;;;;5.32;4.50;;;;;;;4.41;100.00;94958.44;4995954;28;20065;-54
2021/11/03 03:17:01;;;;;;;5.40;4.72;;;;;;;4.45;100.00;94949.34;4998019;28;20065;-56
2021/11/03 03:19:30;;;;;;;5.28;4.88;;;;;;;4.41;100.00;94945.38;4997002;28;20076;-54
2021/11/03 03:21:58;;;;;;;4.93;4.53;;;;;;;4.41;100.00;94936.75;4996777;28;20072;-50
2021/11/03 03:24:27;;;;;;;5.57;5.07;;;;;;;4.27;100.00;94938.03;4998402;28;20567;-55
2021/11/03 03:26:56;;;;;;;5.35;4.80;;;;;;;4.31;100.00;94938.56;4996617;28;20085;-52
2021/11/03 03:29:25;;;;;;;6.22;5.10;;;;;;;4.60;100.00;94935.81;4997645;28;20065;-56
2021/11/03 03:31:54;;;;;;;5.38;4.88;;;;;;;4.59;100.00;94928.97;5001167;28;20057;-52
2021/11/03 03:34:24;;;;;;;5.95;5.35;;;;;;;4.17;100.00;94919.81;5004084;28;20070;-55
2021/11/03 03:36:53;;;;;;;5.72;5.20;;;;;;;4.20;100.00;94924.75;4996323;28;20192;-53
2021/11/03 03:39:24;;;;;;;5.75;5.25;;;;;;;4.60;100.00;94934.03;4999287;28;20094;-55
2021/11/03 03:41:54;;;;;;;5.60;5.10;;;;;;;4.75;100.00;94944.81;4995364;28;20528;-52
2021/11/03 03:44:24;;;;;;;5.93;5.32;;;;;;;4.82;100.00;94952.84;4995135;28;20690;-55
2021/11/03 03:46:53;;;;;;;9.48;5.35;;;;;;;4.65;100.00;94937.03;4999838;28;20724;-57
2021/11/03 03:49:21;;;;;;;6.05;4.90;;;;;;;4.66;100.00;94937.84;4994993;28;20539;-56
2021/11/03 03:51:53;;;;;;;4.90;4.43;;;;;;;4.45;100.00;94944.13;4986065;28;20093;-51
2021/11/03 03:54:22;;;;;;;5.03;4.63;;;;;;;4.10;100.00;94960.47;5002130;28;20081;-53
2021/11/03 03:56:51;;;;;;;5.47;4.90;;;;;;;4.00;100.00;94952.69;4996705;28;20075;-54
2021/11/03 03:59:19;;;;;;;4.75;4.35;;;;;;;3.96;100.00;94953.94;4995468;28;20096;-53
2021/11/03 04:01:49;;;;;;;6.28;5.20;;;;;;;3.97;100.00;94946.91;5005564;28;20066;-54
2021/11/03 04:04:18;;;;;;;5.43;4.93;;;;;;;4.07;100.00;94950.31;5000097;28;20062;-51
2021/11/03 04:06:47;;;;;;;5.18;4.70;;;;;;;4.03;100.00;94943.75;4998995;28;20104;-55
2021/11/03 04:09:16;;;;;;;5.57;5.07;;;;;;;4.09;100.00;94943.16;4997308;28;20504;-53
2021/11/03 04:11:44;;;;;;;5.05;4.65;;;;;;;3.81;100.00;94939.66;4995339;28;20049;-57
2021/11/03 04:14:13;;;;;;;5.50;5.00;;;;;;;3.85;100.00;94932.38;4993304;28;20483;-53
2021/11/03 04:16:41;;;;;;;5.35;4.63;;;;;;;3.94;100.00;94937.59;5002315;28;20516;-56
2021/11/03 04:19:11;;;;;;;5.75;5.15;;;;;;;4.00;100.00;94937.03;4997365;28;21868;-52
2021/11/03 04:21:40;;;;;;;4.95;4.55;;;;;;;3.99;100.00;94937.16;4996329;28;20085;-55
2021/11/03 04:24:21;;;;;;;5.07;4.68;;;;;;;4.03;100.00;94943.75;4997251;28;20082;-57
2021/11/03 04:26:50;;;;;;;5.43;4.93;;;;;;;4.14;100.00;94942.75;4997670;28;20073;-55
2021/11/03 04:29:20;;;;;;;5.38;4.88;;;;;;;4.02;100.00;94945.50;4994172;28;20602;-53
2021/11/03 04:31:49;;;;;;;5.28;4.88;;;;;;;3.75;100.00;94930.66;4995866;28;20065;-53
2021/11/03 04:34:19;;;;;;;5.45;4.95;;;;;;;3.59;100.00;94934.78;4998084;28;20054;-55
2021/11/03 04:36:49;;;;;;;6.15;5.50;;;;;;;3.85;100.00;94924.56;4991826;28;20086;-54
2021/11/03 04:39:18;;;;;;;5.80;5.30;;;;;;;4.09;100.00;94916.25;4998333;28;20093;-55
2021/11/03 04:41:46;;;;;;;5.32;4.82;;;;;;;4.08;100.00;94925.88;4995867;28;20575;-52
2021/11/03 04:44:15;;;;;;;6.00;5.47;;;;;;;4.09;100.00;94919.69;5001615;28;20065;-54
2021/11/03 04:46:44;;;;;;;6.35;4.90;;;;;;;4.08;100.00;94914.63;4998026;28;20081;-55
2021/11/03 04:49:12;;;;;;;8.05;5.57;;;;;;;4.07;100.00;94907.78;4999023;28;20085;-54
2021/11/03 04:51:43;;;;;;;6.10;5.50;;;;;;;3.73;100.00;94913.50;4998408;28;20072;-53
2021/11/03 04:54:12;;;;;;;5.70;5.10;;;;;;;3.83;100.00;94919.50;5003247;28;20562;-54
2021/11/03 04:56:40;;;;;;;9.35;7.00;;;;;;;4.10;100.00;94915.31;5001110;28;20066;-54
2021/11/03 04:59:09;;;;;;;6.40;5.80;;;;;;;4.12;100.00;94922.00;5007218;28;20069;-52
2021/11/03 05:01:38;;;;;;;7.00;6.25;;;;;;;4.20;100.00;94923.94;5006178;28;20049;-54
2021/11/03 05:04:07;;;;;;;6.30;5.60;;;;;;;3.94;100.00;94913.28;5037085;28;20084;-56
2021/11/03 05:06:39;;;;;;;5.90;5.38;;;;;;;4.01;100.00;94904.75;4997825;28;20162;-52
2021/11/03 05:09:10;;;;;;;6.43;5.82;;;;;;;4.19;100.00;94907.44;5003352;28;20082;-53
2021/11/03 05:11:38;;;;;;;;;;;;;;;4.13;100.00;94894.97;4999500;28;20072;-50
2021/11/03 05:14:07;;;;;;;5.85;5.20;;;;;;;4.17;100.00;94891.13;4999768;28;19969;-53
2021/11/03 05:16:35;;;;;;;6.10;5.50;;;;;;;4.17;100.00;94885.09;5000806;28;20061;-53
2021/11/03 05:19:04;;;;;;;7.68;5.93;;;;;;;4.15;100.00;94882.59;4995888;28;20527;-53
2021/11/03 05:21:40;;;;;;;6.90;6.20;;;;;;;4.15;100.00;94882.59;4982381;28;20077;-54
2021/11/03 05:24:10;;;;;;;6.88;6.18;;;;;;;4.17;100.00;94875.47;4980787;28;20289;-52
2021/11/03 05:26:39;;;;;;;6.30;5.70;;;;;;;4.17;100.00;94877.25;4998079;28;20083;-56
2021/11/03 05:29:09;;;;;;;8.10;6.07;;;;;;;4.08;100.00;94871.09;5000275;28;20076;-56
2021/11/03 05:31:37;;;;;;;6.60;5.90;;;;;;;4.13;100.00;94881.94;4998647;28;20096;-52
2021/11/03 05:34:06;;;;;;;7.85;5.63;;;;;;;4.20;100.00;94882.19;4996579;28;20043;-53
2021/11/03 05:36:35;;;;;;;7.00;6.30;;;;;;;3.98;100.00;94889.38;4976793;28;20082;-53
2021/11/03 05:39:05;;;;;;;13.77;6.05;;;;;;;3.76;100.00;94897.56;5004311;28;20069;-56
2021/11/03 05:41:38;;;;;;;6.30;5.68;;;;;;;3.76;100.00;94893.19;5001142;28;20081;-55
2021/11/03 05:44:07;;;;;;;8.30;6.00;;;;;;;3.77;100.00;94894.00;4998436;28;20069;-56
2021/11/03 05:46:37;;;;;;;6.80;6.10;;;;;;;3.90;100.00;94891.91;4999868;28;20081;-54
2021/11/03 05:49:13;;;;;;;;;;;;;;;3.97;100.00;94889.53;4999302;28;20070;-50
2021/11/03 05:51:43;;;;;;;7.65;6.07;;;;;;;4.10;100.00;94884.00;5001825;28;20362;-54
2021/11/03 05:54:12;;;;;;;8.02;6.50;;;;;;;3.98;100.00;94883.34;5005849;28;20081;-57
2021/11/03 05:56:42;;;;;;;7.78;6.82;;;;;;;3.94;100.00;94879.41;5000291;28;20066;-55
2021/11/03 05:59:11;;;;;;;12.18;7.38;;;;;;;4.14;100.00;94878.34;4984069;28;20469;-54
2021/11/03 06:01:39;;;;;;;15.20;8.93;;;;;;;4.20;100.00;94872.56;4981355;28;20070;-54
2021/11/03 06:04:08;;;;;;;15.20;8.40;;;;;;;4.24;100.00;94879.13;4979505;28;20078;-53
2021/11/03 06:06:37;;;;;;;13.80;7.72;;;;;;;4.12;100.00;94882.06;4983562;28;20089;-55
2021/11/03 06:09:08;;;;;;;9.88;8.13;;;;;;;4.34;100.00;94871.25;4979112;28;20070;-56
2021/11/03 06:11:38;;;;;;;;;;;;;;;4.48;100.00;94869.94;4983772;28;20061;-57
2021/11/03 06:14:08;;;;;;;7.90;6.88;;;;;;;4.27;100.00;94872.81;4982418;28;19969;-51
2021/11/03 06:16:37;;;;;;;8.43;7.43;;;;;;;4.44;100.00;94872.03;4987019;28;20074;-53
2021/11/03 06:19:06;;;;;;;10.73;7.40;;;;;;;4.38;100.00;94866.56;4990772;28;20061;-55
2021/11/03 06:21:34;;;;;;;13.02;7.57;;;;;;;4.15;100.00;94861.72;5004019;28;20085;-56
2021/11/03 06:24:04;;;;;;;9.80;7.30;;;;;;;4.30;100.00;94867.28;5006502;28;20077;-55
2021/11/03 06:26:32;;;;;;;11.68;7.68;;;;;;;4.13;100.00;94868.06;5001971;28;20125;-58
2021/11/03 06:29:01;;;;;;;12.35;7.57;;;;;;;4.35;100.00;94865.06;5006071;28;20085;-52
2021/11/03 06:31:30;;;;;;;11.43;8.07;;;;;;;4.32;100.00;94857.53;5005616;28;20066;-52
2021/11/03 06:33:59;;;;;;;12.80;8.13;;;;;;;4.49;100.00;94853.31;5003548;28;20056;-53
2021/11/03 06:36:28;;;;;;;12.25;7.80;;;;;;;4.58;100.00;94856.84;5003914;28;20082;-51
2021/11/03 06:38:56;;;;;;;13.88;7.47;;;;;;;4.59;100.00;94850.66;5001832;28;20100;-53
2021/11/03 06:41:27;;;;;;;11.95;7.40;;;;;;;4.68;100.00;94861.03;5005551;28;20065;-52
2021/11/03 06:43:55;;;;;;;10.68;7.13;;;;;;;4.97;100.00;94860.00;4998753;28;20069;-55
2021/11/03 06:46:24;;;;;;;10.50;7.72;;;;;;;5.18;100.00;94862.28;5004907;28;20080;-56
2021/11/03 06:48:54;;;;;;;11.43;7.60;;;;;;;5.34;100.00;94867.66;5003503;28;20104;-54
2021/11/03 06:51:23;;;;;;;9.68;7.57;;;;;;;5.38;100.00;94863.75;5010658;28;20085;-53
2021/11/03 06:53:51;;;;;;;12.50;7.10;;;;;;;5.55;100.00;94862.09;5004697;28;20065;-55
2021/11/03 06:56:19;;;;;;;8.43;7.03;;;;;;;5.37;100.00;94867.34;5003236;28;20141;-54
2021/11/03 06:58:48;;;;;;;8.93;6.70;;;;;;;5.24;100.00;94861.69;5005394;28;20681;-54
2021/11/03 07:01:16;;;;;;;8.05;6.75;;;;;;;5.03;100.00;94848.94;4998397;28;20073;-56
2021/11/03 07:03:48;;;;;;;9.43;6.72;;;;;;;5.54;100.00;94842.16;4984103;28;20078;-52
2021/11/03 07:06:18;;;;;;;7.45;6.57;;;;;;;5.46;100.00;94855.97;4986731;28;20098;-54
2021/11/03 07:08:51;;;;;;;10.73;7.05;;;;;;;5.74;100.00;94853.19;4999903;28;20572;-53
2021/11/03 07:11:19;;;;;;;10.15;6.80;;;;;;;5.73;100.00;94854.19;5005198;28;20081;-54
2021/11/03 07:13:52;;;;;;;9.27;7.03;;;;;;;5.79;100.00;94850.94;5004770;28;20069;-56
2021/11/03 07:16:21;;;;;;;7.68;6.72;;;;;;;5.74;100.00;94845.34;5001682;28;20062;-54
2021/11/03 07:18:50;;;;;;;7.72;6.57;;;;;;;5.87;100.00;94850.16;5005682;28;20081;-56
2021/11/03 07:21:20;;;;;;;10.15;6.18;;;;;;;5.80;100.00;94843.91;5007516;28;20088;-50
2021/11/03 07:23:49;;;;;;;8.60;7.10;;;;;;;5.84;100.00;94846.06;4997615;28;20066;-52
2021/11/03 07:26:18;;;;;;;8.95;7.00;;;;;;;6.03;100.00;94844.25;4985620;28;20073;-55
2021/11/03 07:28:46;;;;;;;12.73;7.10;;;;;;;5.85;100.00;94839.03;4980005;28;20066;-57
2021/11/03 07:31:15;;;;;;;10.00;6.72;;;;;;;5.81;100.00;94827.25;4978233;28;20089;-55
2021/11/03 07:33:43;;;;;;;10.13;6.95;;;;;;;6.12;100.00;94830.19;4978743;28;20591;-58
2021/11/03 07:36:14;;;;;;;9.63;7.32;;;;;;;6.11;100.00;94823.34;4997877;28;20104;-54
2021/11/03 07:38:44;;;;;;;10.05;6.60;;;;;;;6.31;100.00;94822.09;4999538;28;20314;-55
2021/11/03 07:41:33;;;;;;;9.50;6.47;;;;;;;6.71;100.00;94815.34;4977531;28;20455;-55
2021/11/03 07:44:01;;;;;;;10.45;6.50;;;;;;;6.56;100.00;94812.50;4975680;28;20075;-58
2021/11/03 07:46:30;;;;;;;10.65;6.60;;;;;;;6.51;100.00;94809.56;4982882;28;20073;-56
2021/11/03 07:48:58;;;;;;;8.05;6.43;;;;;;;6.81;100.00;94799.44;4995967;28;20073;-52
2021/11/03 07:51:27;;;;;;;7.75;6.70;;;;;;;6.41;100.00;94795.78;5003496;28;20590;-58
2021/11/03 07:53:59;;;;;;;9.52;6.05;;;;;;;6.56;100.00;94801.22;4999187;28;20069;-52
2021/11/03 07:56:32;;;;;;;7.22;5.78;;;;;;;6.43;100.00;94796.44;4998660;28;20590;-54
2021/11/03 07:59:01;;;;;;;9.57;6.03;;;;;;;6.41;100.00;94803.66;4994170;28;20073;-56
2021/11/03 08:01:30;;;;;;;7.90;6.13;;;;;;;6.97;100.00;94794.22;4999524;28;20559;-55
2021/11/03 08:03:58;;;;;;;6.63;5.95;;;;;;;6.61;100.00;94789.28;4995137;28;20081;-58
2021/11/03 08:06:28;;;;;;;10.95;6.43;;;;;;;7.15;100.00;94778.31;5001503;28;20120;-58
2021/11/03 08:09:05;;;;;;;6.97;5.93;;;;;;;6.98;100.00;94768.84;4996713;28;20070;-58
2021/11/03 08:11:37;;;;;;;6.55;5.82;;;;;;;7.14;100.00;94779.31;4996583;28;20081;-55
2021/11/03 08:14:06;;;;;;;9.80;5.75;;;;;;;7.33;100.00;94784.22;4995837;28;20073;-57
2021/11/03 08:16:51;;;;;;;6.82;5.88;;;;;;;7.81;100.00;94768.53;4999816;28;20073;-55
2021/11/03 08:19:20;;;;;;;7.20;5.32;;;;;;;7.28;100.00;94765.53;5000791;28;20089;-57
2021/11/03 08:21:48;;;;;;;8.35;5.45;;;;;;;7.70;100.00;94772.31;4994878;28;20528;-57
2021/11/03 08:24:18;;;;;;;6.10;5.50;;;;;;;7.85;100.00;94782.97;4995334;28;20087;-52
2021/11/03 08:26:51;;;;;;;7.05;5.60;;;;;;;7.97;100.00;94786.03;4999295;28;20052;-52
2021/11/03 08:29:20;;;;;;;6.65;5.95;;;;;;;8.34;100.00;94785.38;5003695;28;20085;-56
2021/11/03 08:31:49;;;;;;;7.82;5.82;;;;;;;8.68;100.00;94779.78;5003895;28;20449;-56
2021/11/03 08:34:18;;;;;;;7.53;6.10;;;;;;;8.62;100.00;94788.38;5001015;28;20061;-57
2021/11/03 08:36:46;;;;;;;8.25;5.90;;;;;;;8.54;100.00;94770.03;4999033;28;20463;-55
2021/11/03 08:39:15;;;;;;;6.55;5.35;;;;;;;8.51;100.00;94771.19;5001725;28;20073;-58
2021/11/03 08:41:45;;;;;;;5.65;5.10;;;;;;;8.50;100.00;94769.56;5000514;28;20075;-59
2021/11/03 08:44:14;;;;;;;7.05;5.45;;;;;;;8.32;100.00;94769.78;5000372;28;20660;-54
2021/11/03 08:46:43;;;;;;;11.00;5.22;;;;;;;8.51;100.00;94759.88;4999220;28;20089;-57
2021/11/03 08:49:11;;;;;;;9.32;5.75;;;;;;;8.83;100.00;94766.72;4992404;28;20073;-57
2021/11/03 08:51:40;;;;;;;6.18;5.13;;;;;;;8.66;100.00;94765.19;4983276;28;20521;-57
2021/11/03 08:54:09;;;;;;;6.15;5.10;;;;;;;9.23;100.00;94762.94;5004265;28;20093;-57
2021/11/03 08:56:39;;;;;;;7.53;5.30;;;;;;;9.48;100.00;94760.91;5002423;28;20428;-57
2021/11/03 08:59:09;;;;;;;11.00;5.40;;;;;;;9.44;100.00;94764.88;5001631;28;20111;-58
2021/11/03 09:01:39;;;;;;;9.93;5.53;;;;;;;9.58;100.00;94760.63;5001055;28;20102;-57
2021/11/03 09:04:08;;;;;;;6.88;5.30;;;;;;;9.80;100.00;94761.53;4999940;28;20089;-54
2021/11/03 09:06:38;;;;;;;6.22;5.00;;;;;;;10.19;100.00;94761.25;5000678;28;20080;-57
2021/11/03 09:09:07;;;;;;;9.35;5.30;;;;;;;9.90;100.00;94759.44;5004936;28;20077;-55
2021/11/03 09:11:35;;;;;;;5.32;4.53;;;;;;;9.70;100.00;94755.72;4998054;28;20058;-57
2021/11/03 09:14:04;;;;;;;14.80;5.47;;;;;;;9.50;100.00;94755.47;5001333;28;20065;-58
2021/11/03 09:16:34;;;;;;;6.63;5.28;;;;;;;9.18;100.00;94753.94;4999515;28;20077;-59
2021/11/03 09:19:03;;;;;;;7.78;5.05;;;;;;;9.34;100.00;94747.72;4994692;28;20066;-56
2021/11/03 09:21:32;;;;;;;7.32;5.20;;;;;;;9.26;100.00;94744.19;5005740;28;20045;-59
2021/11/03 09:24:00;;;;;;;7.35;4.68;;;;;;;9.75;100.00;94732.34;4997371;28;21329;-55
2021/11/03 09:26:29;;;;;;;8.02;4.75;;;;;;;9.66;100.00;94736.03;5000221;28;20086;-57
2021/11/03 09:28:59;;;;;;;8.27;5.38;;;;;;;10.12;100.00;94730.59;4999471;28;20714;-58
2021/11/03 09:31:28;;;;;;;5.55;4.60;;;;;;;9.66;100.00;94731.59;5001498;28;20081;-56
2021/11/03 09:33:58;;;;;;;6.43;4.90;;;;;;;10.30;100.00;94728.38;5000547;28;20057;-55
2021/11/03 09:36:28;;;;;;;10.65;5.57;;;;;;;10.23;100.00;94725.66;5001571;28;20085;-51
2021/11/03 09:38:56;;;;;;;8.45;5.20;;;;;;;10.09;100.00;94712.50;5003258;28;20081;-57
2021/11/03 09:41:27;;;;;;;7.57;4.85;;;;;;;10.05;100.00;94704.16;5002041;28;20080;-58
2021/11/03 09:43:56;;;;;;;;;;;;;;;9.99;100.00;94697.81;5005306;28;20484;-57
2021/11/03 09:46:27;;;;;;;8.95;5.47;;;;;;;10.11;100.00;94695.50;5000418;28;19983;-57
2021/11/03 09:49:08;;;;;;;8.15;5.22;;;;;;;10.11;100.00;94708.66;4999884;28;20069;-50
2021/11/03 09:51:38;;;;;;;8.02;5.30;;;;;;;10.82;100.00;94694.84;5000626;28;20539;-55
2021/11/03 09:54:08;;;;;;;7.53;5.18;;;;;;;10.66;100.00;94696.72;5001168;28;20081;-56
2021/11/03 09:56:39;;;;;;;7.85;4.47;;;;;;;10.69;100.00;94688.44;4997942;28;20073;-55
2021/11/03 09:59:32;;;;;;;7.75;4.78;;;;;;;9.87;100.00;94691.38;4998910;28;20096;-53
2021/11/03 10:02:10;;;;;;;7.25;4.32;;;;;;;10.58;100.00;94677.59;5001712;28;20070;-55
2021/11/03 10:04:57;;;;;;;6.18;4.47;;;;;;;10.45;100.00;94681.72;5000206;28;20484;-56
2021/11/03 10:07:33;;;;;;;8.93;4.05;;;;;;;10.95;100.00;94683.59;5000119;28;20065;-59
2021/11/03 10:10:10;;;;;;;6.60;3.95;;;;;;;10.79;100.00;94677.56;4996719;28;20069;-57
2021/11/03 10:12:38;;;;;;;7.18;4.28;;;;;;;10.02;100.00;94686.09;5000836;28;20084;-59
2021/11/03 10:15:07;;;;;;;5.82;4.18;;;;;;;10.35;100.00;94683.03;4997629;28;20094;-53
2021/11/03 10:17:36;;;;;;;4.85;3.90;;;;;;;10.76;100.00;94680.59;5003199;28;20080;-57
2021/11/03 10:20:24;;;;;;;4.25;3.70;;;;;;;10.72;100.00;94673.25;5000011;28;20069;-57
2021/11/03 10:22:53;;;;;;;4.78;3.58;;;;;;;10.01;100.00;94679.19;4998706;28;20070;-57
2021/11/03 10:25:26;;;;;;;5.20;3.50;;;;;;;10.28;100.00;94668.97;4998606;28;20081;-52
2021/11/03 10:27:59;;;;;;;4.78;4.10;;;;;;;10.79;100.00;94664.41;4999866;28;20066;-55
2021/11/03 10:30:32;;;;;;;6.05;3.75;;;;;;;10.96;100.00;94657.03;5000996;28;20089;-54
2021/11/03 10:33:17;;;;;;;4.10;3.70;;;;;;;10.51;100.00;94659.09;4997584;28;20476;-51
2021/11/03 10:35:56;;;;;;;6.20;3.92;;;;;;;10.51;100.00;94655.63;4999561;28;20057;-54
2021/11/03 10:38:27;;;;;;;6.00;4.30;;;;;;;10.65;100.00;94657.38;5001470;28;20073;-52
2021/11/03 10:41:01;;;;;;;9.50;4.22;;;;;;;10.88;100.00;94660.63;4999348;28;20548;-56
2021/11/03 10:43:35;;;;;;;5.25;3.97;;;;;;;10.94;100.00;94659.03;5002870;28;20076;-55
2021/11/03 10:46:12;;;;;;;9.07;3.97;;;;;;;10.34;100.00;94660.34;5003503;28;20058;-52
2021/11/03 10:48:51;;;;;;;5.28;4.00;;;;;;;10.58;100.00;94649.41;5002055;28;20070;-51
2021/11/03 10:51:25;;;;;;;7.45;3.65;;;;;;;10.70;100.00;94644.44;5005773;28;20100;-57
2021/11/03 10:53:56;;;;;;;7.30;3.95;;;;;;;10.47;100.00;94644.66;5006993;28;20066;-57
2021/11/03 10:56:27;;;;;;;6.03;4.18;;;;;;;10.34;100.00;94636.63;5001194;28;20077;-57
2021/11/03 10:59:00;;;;;;;6.15;4.30;;;;;;;10.74;100.00;94631.72;5003100;28;20070;-56
2021/11/03 11:01:33;;;;;;;6.00;3.97;;;;;;;10.63;100.00;94628.59;4999255;28;20062;-60
2021/11/03 11:04:06;;;;;;;7.32;4.75;;;;;;;10.62;100.00;94629.56;5004077;28;20065;-57
2021/11/03 11:06:40;;;;;;;6.93;4.72;;;;;;;10.90;100.00;94626.97;5006384;28;20081;-58
2021/11/03 11:09:23;;;;;;;7.63;4.57;;;;;;;10.76;100.00;94637.59;4997330;28;20077;-55
2021/11/03 11:11:57;;;;;;;7.35;4.82;;;;;;;11.38;100.00;94627.06;5007186;28;20080;-52
2021/11/03 11:14:29;;;;;;;9.60;4.85;;;;;;;10.93;100.00;94638.94;4987759;28;20062;-56
2021/11/03 11:17:01;;;;;;;7.38;4.88;;;;;;;11.12;100.00;94627.75;4986712;28;20065;-49
2021/11/03 11:19:47;;;;;;;8.82;5.32;;;;;;;10.27;100.00;94636.56;4997532;28;20057;-54
2021/11/03 11:22:34;;;;;;;7.68;5.28;;;;;;;10.58;100.00;94636.25;5000230;28;20062;-57
2021/11/03 11:25:09;;;;;;;7.10;5.05;;;;;;;10.57;100.00;94634.63;4987612;28;20061;-52
2021/11/03 11:27:45;;;;;;;10.35;5.68;;;;;;;10.84;100.00;94626.91;5006348;28;20077;-57
2021/11/03 11:30:17;;;;;;;12.50;5.70;;;;;;;11.54;100.00;94623.31;5008209;28;20073;-51
2021/11/03 11:32:53;;;;;;;8.18;5.50;;;;;;;11.65;100.00;94616.66;4983904;28;20066;-55
2021/11/03 11:35:27;;;;;;;7.63;5.03;;;;;;;11.16;100.00;94614.97;4997886;28;20127;-53
2021/11/03 11:38:08;;;;;;;8.50;5.40;;;;;;;11.50;100.00;94608.88;5005682;28;20539;-52
2021/11/03 11:40:47;;;;;;;9.52;5.05;;;;;;;11.42;100.00;94601.09;5006631;28;20088;-56
2021/11/03 11:43:22;;;;;;;8.98;5.57;;;;;;;11.58;100.00;94598.13;5002839;28;20074;-53
2021/11/03 11:45:51;;;;;;;7.18;5.20;;;;;;;11.47;100.00;94587.34;5003496;28;20527;-52
2021/11/03 11:48:28;;;;;;;8.60;5.63;;;;;;;11.40;100.00;94584.66;5004494;28;20081;-57